createdAt,value
2022-09-17T00:01:47.113Z,15.20
2022-09-17T00:04:15.677Z,15.22
2022-09-17T00:06:43.956Z,15.24
2022-09-17T00:09:12.354Z,15.25
2022-09-17T00:11:43.836Z,15.28
2022-09-17T00:14:17.696Z,15.27
2022-09-17T00:16:48.149Z,15.27
2022-09-17T00:19:20.330Z,15.30
2022-09-17T00:21:49.159Z,15.33
2022-09-17T00:24:19.088Z,15.33
2022-09-17T00:26:48.607Z,15.30
2022-09-17T00:29:18.471Z,15.26
2022-09-17T00:31:47.586Z,15.26
2022-09-17T00:34:17.217Z,15.32
2022-09-17T00:36:45.413Z,15.40
2022-09-17T00:39:15.941Z,15.46
2022-09-17T00:41:44.672Z,15.46
2022-09-17T00:44:40.754Z,15.43
2022-09-17T00:47:19.012Z,15.40
2022-09-17T00:49:52.892Z,15.38
2022-09-17T00:52:29.701Z,15.37
2022-09-17T00:55:12.727Z,15.37
2022-09-17T00:57:42.286Z,15.35
2022-09-17T01:00:11.270Z,15.32
2022-09-17T01:02:40.503Z,15.28
2022-09-17T01:05:10.440Z,15.26
2022-09-17T01:08:01.111Z,15.25
2022-09-17T01:10:47.560Z,15.19
2022-09-17T01:13:19.902Z,15.13
2022-09-17T01:16:00.222Z,15.10
2022-09-17T01:18:31.790Z,15.09
2022-09-17T01:21:16.081Z,15.09
2022-09-17T01:24:22.326Z,15.07
2022-09-17T01:27:12.284Z,15.03
2022-09-17T01:30:18.808Z,15.04
2022-09-17T01:33:03.328Z,15.01
2022-09-17T01:35:38.426Z,14.97
2022-09-17T01:38:38.990Z,14.92
2022-09-17T01:41:28.789Z,14.91
2022-09-17T01:44:17.643Z,14.90
2022-09-17T01:47:04.408Z,14.90
2022-09-17T01:49:38.027Z,14.86
2022-09-17T01:52:10.735Z,14.84
2022-09-17T01:54:48.516Z,14.85
2022-09-17T01:57:23.144Z,14.81
2022-09-17T02:00:11.610Z,14.79
2022-09-17T02:02:52.737Z,14.75
2022-09-17T02:05:40.265Z,14.74
2022-09-17T02:08:14.530Z,14.69
2022-09-17T02:10:53.264Z,14.66
2022-09-17T02:13:33.063Z,14.61
2022-09-17T02:16:17.745Z,14.63
2022-09-17T02:19:17.585Z,14.67
2022-09-17T02:22:07.214Z,14.66
2022-09-17T02:24:44.760Z,14.62
2022-09-17T02:27:19.950Z,14.58
2022-09-17T02:29:49.541Z,14.54
2022-09-17T02:32:17.755Z,14.52
2022-09-17T02:34:46.754Z,14.50
2022-09-17T02:37:15.647Z,14.49
2022-09-17T02:39:46.052Z,14.48
2022-09-17T02:42:39.428Z,14.47
2022-09-17T02:45:07.900Z,14.47
2022-09-17T02:47:54.699Z,14.44
2022-09-17T02:50:37.730Z,14.43
2022-09-17T02:53:12.483Z,14.42
2022-09-17T02:56:02.109Z,14.39
2022-09-17T02:59:07.110Z,14.31
2022-09-17T03:01:48.091Z,14.09
2022-09-17T03:04:18.907Z,13.97
2022-09-17T03:06:48.178Z,13.99
2022-09-17T03:09:16.828Z,14.05
2022-09-17T03:11:46.307Z,14.08
2022-09-17T03:14:15.465Z,14.12
2022-09-17T03:16:43.760Z,14.15
2022-09-17T03:19:14.052Z,14.14
2022-09-17T03:21:42.813Z,14.14
2022-09-17T03:24:11.960Z,14.13
2022-09-17T03:26:40.888Z,14.11
2022-09-17T03:29:09.329Z,14.09
2022-09-17T03:31:37.819Z,14.10
2022-09-17T03:34:06.792Z,14.04
2022-09-17T03:36:36.115Z,14.02
2022-09-17T03:39:05.392Z,14.05
2022-09-17T03:41:33.621Z,14.06
2022-09-17T03:44:03.424Z,14.02
2022-09-17T03:46:32.205Z,13.98
2022-09-17T03:49:03.293Z,13.96
2022-09-17T03:51:31.473Z,13.88
2022-09-17T03:54:00.204Z,13.74
2022-09-17T03:56:29.229Z,13.65
2022-09-17T03:59:00.997Z,13.57
2022-09-17T04:01:29.846Z,13.54
2022-09-17T04:03:58.110Z,13.55
2022-09-17T04:06:29.059Z,13.46
2022-09-17T04:08:57.593Z,13.34
2022-09-17T04:11:27.620Z,13.20
2022-09-17T04:13:58.503Z,13.15
2022-09-17T04:16:26.954Z,13.17
2022-09-17T04:18:55.932Z,13.19
2022-09-17T04:21:24.111Z,13.22
2022-09-17T04:23:52.344Z,13.21
2022-09-17T04:26:20.552Z,13.19
2022-09-17T04:28:49.302Z,13.22
2022-09-17T04:31:18.805Z,13.28
2022-09-17T04:33:47.269Z,13.33
2022-09-17T04:36:16.119Z,13.34
2022-09-17T04:38:45.450Z,13.32
2022-09-17T04:41:14.073Z,13.33
2022-09-17T04:43:42.350Z,13.18
2022-09-17T04:46:10.768Z,13.16
2022-09-17T04:48:39.148Z,13.15
2022-09-17T04:51:07.467Z,13.15
2022-09-17T04:53:38.372Z,13.17
2022-09-17T04:56:06.599Z,13.17
2022-09-17T04:58:34.841Z,13.10
2022-09-17T05:01:03.856Z,13.03
2022-09-17T05:03:33.145Z,13.05
2022-09-17T05:06:01.520Z,13.03
2022-09-17T05:08:29.867Z,12.90
2022-09-17T05:10:58.390Z,12.93
2022-09-17T05:13:26.710Z,12.98
2022-09-17T05:15:57.063Z,13.01
2022-09-17T05:18:26.977Z,13.05
2022-09-17T05:20:55.045Z,12.98
2022-09-17T05:23:24.898Z,12.92
2022-09-17T05:25:54.742Z,12.91
2022-09-17T05:28:23.148Z,12.89
2022-09-17T05:30:52.935Z,12.93
2022-09-17T05:33:21.670Z,13.00
2022-09-17T05:35:50.187Z,13.07
2022-09-17T05:38:19.200Z,13.03
2022-09-17T05:40:49.231Z,13.01
2022-09-17T05:43:17.829Z,12.98
2022-09-17T05:45:46.992Z,12.95
2022-09-17T05:48:15.778Z,12.91
2022-09-17T05:50:44.614Z,12.75
2022-09-17T05:53:14.141Z,12.68
2022-09-17T05:55:43.267Z,12.55
2022-09-17T05:58:20.118Z,12.48
2022-09-17T06:00:49.572Z,12.48
2022-09-17T06:03:20.274Z,12.47
2022-09-17T06:05:58.453Z,12.54
2022-09-17T06:08:29.150Z,12.60
2022-09-17T06:11:02.355Z,12.66
2022-09-17T06:13:31.906Z,12.66
2022-09-17T06:16:01.697Z,12.73
2022-09-17T06:18:31.885Z,12.83
2022-09-17T06:21:04.346Z,12.88
2022-09-17T06:23:36.349Z,12.97
2022-09-17T06:26:06.008Z,13.03
2022-09-17T06:28:39.177Z,12.93
2022-09-17T06:31:12.350Z,12.89
2022-09-17T06:33:42.378Z,12.87
2022-09-17T06:36:14.488Z,12.85
2022-09-17T06:38:47.120Z,12.96
2022-09-17T06:41:17.156Z,13.00
2022-09-17T06:43:45.770Z,13.04
2022-09-17T06:46:17.056Z,13.09
2022-09-17T06:48:46.332Z,13.14
2022-09-17T06:51:15.181Z,13.19
2022-09-17T06:53:43.885Z,13.19
2022-09-17T06:56:14.168Z,13.21
2022-09-17T06:58:43.125Z,13.27
2022-09-17T07:01:15.707Z,13.31
2022-09-17T07:03:45.768Z,13.35
2022-09-17T07:06:14.943Z,13.39
2022-09-17T07:08:44.142Z,13.40
2022-09-17T07:11:12.522Z,13.46
2022-09-17T07:13:41.342Z,13.52
2022-09-17T07:16:10.838Z,13.52
2022-09-17T07:18:43.652Z,13.46
2022-09-17T07:21:12.180Z,13.41
2022-09-17T07:23:42.173Z,13.42
2022-09-17T07:26:16.035Z,13.42
2022-09-17T07:28:46.277Z,13.49
2022-09-17T07:31:16.563Z,13.60
2022-09-17T07:33:46.233Z,13.75
2022-09-17T07:36:18.287Z,13.85
2022-09-17T07:38:47.555Z,13.94
2022-09-17T07:41:18.401Z,14.00
2022-09-17T07:43:47.784Z,14.08
2022-09-17T07:46:20.787Z,14.21
2022-09-17T07:48:50.284Z,14.37
2022-09-17T07:51:22.103Z,14.47
2022-09-17T07:53:58.280Z,14.59
2022-09-17T07:56:28.545Z,14.71
2022-09-17T07:58:59.421Z,14.79
2022-09-17T08:01:29.481Z,14.81
2022-09-17T08:03:59.357Z,14.83
2022-09-17T08:06:30.818Z,14.83
2022-09-17T08:09:02.865Z,14.86
2022-09-17T08:14:28.474Z,15.18
2022-09-17T08:16:59.609Z,15.37
2022-09-17T08:19:32.246Z,15.44
2022-09-17T08:22:02.424Z,15.47
2022-09-17T08:24:31.253Z,15.42
2022-09-17T08:26:59.594Z,15.47
2022-09-17T08:29:30.976Z,15.49
2022-09-17T08:32:02.906Z,15.56
2022-09-17T08:34:32.963Z,15.52
2022-09-17T08:37:03.286Z,15.54
2022-09-17T08:39:33.907Z,15.52
2022-09-17T08:42:14.239Z,15.50
2022-09-17T08:44:46.333Z,15.47
2022-09-17T08:47:28.795Z,15.48
2022-09-17T08:50:03.606Z,15.51
2022-09-17T08:52:54.966Z,15.54
2022-09-17T08:55:44.136Z,15.59
2022-09-17T08:58:27.622Z,15.66
2022-09-17T09:01:24.897Z,15.61
2022-09-17T09:04:03.708Z,15.57
2022-09-17T09:06:45.210Z,15.65
2022-09-17T09:09:21.352Z,15.67
2022-09-17T09:12:01.722Z,15.72
2022-09-17T09:14:57.383Z,15.82
2022-09-17T09:17:32.753Z,15.88
2022-09-17T09:20:01.639Z,15.94
2022-09-17T09:22:51.482Z,16.09
2022-09-17T09:25:32.906Z,16.23
2022-09-17T09:28:20.191Z,16.34
2022-09-17T09:31:04.919Z,16.47
2022-09-17T09:33:47.889Z,16.65
2022-09-17T09:36:22.226Z,16.90
2022-09-17T09:39:03.614Z,17.13
2022-09-17T09:41:43.625Z,17.18
2022-09-17T09:44:15.984Z,17.18
2022-09-17T09:47:17.072Z,17.32
2022-09-17T09:50:15.697Z,17.40
2022-09-17T09:53:02.922Z,17.15
2022-09-17T09:55:59.951Z,17.20
2022-09-17T09:58:36.492Z,17.16
2022-09-17T10:01:16.101Z,17.12
2022-09-17T10:03:48.478Z,17.20
2022-09-17T10:06:22.789Z,17.32
2022-09-17T10:08:51.297Z,17.33
2022-09-17T10:11:23.137Z,17.31
2022-09-17T10:13:52.389Z,17.35
2022-09-17T10:16:27.895Z,17.32
2022-09-17T10:19:05.609Z,17.27
2022-09-17T10:21:40.583Z,17.32
2022-09-17T10:24:34.679Z,17.40
2022-09-17T10:27:14.082Z,17.65
2022-09-17T10:29:49.431Z,17.99
2022-09-17T10:32:21.012Z,18.56
2022-09-17T10:35:04.996Z,18.71
2022-09-17T10:37:46.096Z,18.80
2022-09-17T10:40:24.385Z,18.73
2022-09-17T10:43:17.973Z,18.70
2022-09-17T10:46:01.335Z,18.73
2022-09-17T10:48:38.983Z,18.79
2022-09-17T10:51:09.140Z,18.89
2022-09-17T10:54:09.300Z,19.00
2022-09-17T10:56:41.262Z,19.02
2022-09-17T10:59:36.054Z,19.04
2022-09-17T11:02:22.791Z,19.13
2022-09-17T11:05:12.613Z,19.12
2022-09-17T11:08:03.022Z,19.00
2022-09-17T11:10:44.576Z,18.99
2022-09-17T11:13:42.095Z,18.87
2022-09-17T11:16:55.724Z,18.53
2022-09-17T11:19:51.668Z,18.43
2022-09-17T11:22:46.306Z,18.42
2022-09-17T11:25:45.130Z,18.23
2022-09-17T11:28:24.550Z,18.06
2022-09-17T11:31:11.720Z,17.91
2022-09-17T11:33:59.831Z,17.75
2022-09-17T11:36:38.079Z,17.73
2022-09-17T11:39:29.051Z,17.67
2022-09-17T11:42:03.691Z,17.60
2022-09-17T11:44:50.004Z,17.53
2022-09-17T11:47:24.195Z,17.54
2022-09-17T11:50:21.207Z,17.65
2022-09-17T11:53:00.790Z,17.87
2022-09-17T11:55:51.279Z,17.90
2022-09-17T11:58:47.426Z,18.12
2022-09-17T12:01:33.677Z,18.47
2022-09-17T12:04:25.932Z,18.78
2022-09-17T12:07:21.709Z,18.85
2022-09-17T12:10:22.128Z,18.85
2022-09-17T12:13:03.615Z,18.82
2022-09-17T12:15:39.590Z,18.81
2022-09-17T12:18:32.640Z,18.66
2022-09-17T12:21:06.480Z,18.33
2022-09-17T12:23:39.214Z,18.20
2022-09-17T12:26:21.965Z,18.10
2022-09-17T12:29:16.817Z,17.93
2022-09-17T12:31:46.356Z,17.87
2022-09-17T12:34:40.712Z,17.75
2022-09-17T12:37:27.403Z,17.72
2022-09-17T12:40:08.675Z,17.86
2022-09-17T12:43:18.838Z,17.90
2022-09-17T12:46:46.209Z,17.80
2022-09-17T12:49:34.806Z,17.75
2022-09-17T12:52:20.544Z,17.49
2022-09-17T12:55:07.799Z,17.52
2022-09-17T12:57:52.886Z,17.58
2022-09-17T13:00:22.819Z,17.57
2022-09-17T13:03:20.296Z,17.51
2022-09-17T13:06:19.687Z,17.55
2022-09-17T13:09:00.586Z,17.69
2022-09-17T13:11:45.884Z,17.84
2022-09-17T13:14:47.188Z,17.86
2022-09-17T13:17:39.879Z,17.70
2022-09-17T13:20:26.301Z,17.56
2022-09-17T13:22:57.511Z,17.61
2022-09-17T13:25:28.317Z,17.60
2022-09-17T13:28:11.573Z,17.61
2022-09-17T13:31:00.886Z,17.65
2022-09-17T13:33:52.492Z,17.72
2022-09-17T13:36:34.903Z,17.70
2022-09-17T13:39:05.679Z,17.69
2022-09-17T13:41:39.348Z,17.69
2022-09-17T13:44:11.071Z,17.61
2022-09-17T13:46:40.602Z,17.41
2022-09-17T13:49:16.581Z,17.24
2022-09-17T13:51:48.575Z,17.14
2022-09-17T13:54:19.844Z,17.07
2022-09-17T13:57:07.291Z,17.04
2022-09-17T13:59:37.768Z,16.97
2022-09-17T14:02:17.971Z,16.83
2022-09-17T14:04:57.486Z,16.69
2022-09-17T14:07:28.597Z,16.66
2022-09-17T14:09:59.617Z,16.61
2022-09-17T14:12:50.043Z,16.57
2022-09-17T14:15:54.334Z,16.51
2022-09-17T14:18:31.415Z,16.42
2022-09-17T14:21:09.059Z,16.42
2022-09-17T14:23:45.485Z,16.40
2022-09-17T14:26:35.672Z,16.40
2022-09-17T14:29:15.920Z,16.38
2022-09-17T14:31:45.460Z,16.32
2022-09-17T14:34:21.493Z,16.25
2022-09-17T14:36:56.829Z,16.21
2022-09-17T14:39:37.310Z,16.16
2022-09-17T14:42:15.397Z,16.09
2022-09-17T14:44:59.099Z,16.08
2022-09-17T14:47:28.226Z,16.06
2022-09-17T14:50:22.261Z,15.99
2022-09-17T14:52:54.381Z,15.94
2022-09-17T14:55:26.781Z,15.91
2022-09-17T14:58:03.085Z,15.89
2022-09-17T15:00:40.782Z,15.86
2022-09-17T15:03:22.797Z,15.85
2022-09-17T15:05:52.389Z,15.82
2022-09-17T15:08:26.308Z,15.80
2022-09-17T15:10:58.236Z,15.75
2022-09-17T15:13:30.515Z,15.67
2022-09-17T15:15:59.837Z,15.57
2022-09-17T15:18:40.332Z,15.51
2022-09-17T15:21:25.189Z,15.46
2022-09-17T15:23:59.952Z,15.45
2022-09-17T15:26:34.209Z,15.44
2022-09-17T15:29:04.422Z,15.43
2022-09-17T15:31:33.028Z,15.38
2022-09-17T15:34:01.738Z,15.34
2022-09-17T15:36:31.924Z,15.29
2022-09-17T15:39:01.825Z,15.27
2022-09-17T15:41:32.537Z,15.28
2022-09-17T15:44:30.457Z,15.25
2022-09-17T15:47:55.738Z,15.17
2022-09-17T15:50:28.908Z,15.16
2022-09-17T15:53:09.436Z,15.17
2022-09-17T15:55:44.127Z,15.16
2022-09-17T15:58:33.331Z,15.13
2022-09-17T16:01:17.190Z,15.09
2022-09-17T16:03:46.616Z,15.08
2022-09-17T16:06:25.711Z,15.07
2022-09-17T16:08:56.292Z,15.01
2022-09-17T16:11:27.252Z,14.97
2022-09-17T16:13:58.471Z,14.94
2022-09-17T16:16:36.230Z,14.91
2022-09-17T16:19:06.623Z,14.87
2022-09-17T16:21:36.170Z,14.81
2022-09-17T16:24:05.563Z,14.75
2022-09-17T16:26:35.734Z,14.73
2022-09-17T16:29:07.240Z,14.72
2022-09-17T16:31:36.003Z,14.70
2022-09-17T16:34:04.162Z,14.67
2022-09-17T16:36:33.117Z,14.63
2022-09-17T16:39:03.732Z,14.60
2022-09-17T16:41:31.853Z,14.58
2022-09-17T16:43:59.947Z,14.56
2022-09-17T16:46:28.366Z,14.55
2022-09-17T16:48:57.442Z,14.55
2022-09-17T16:51:25.761Z,14.54
2022-09-17T16:53:54.503Z,14.52
2022-09-17T16:56:23.489Z,14.52
2022-09-17T16:58:56.578Z,14.51
2022-09-17T17:01:24.983Z,14.50
2022-09-17T17:03:55.938Z,14.48
2022-09-17T17:06:24.546Z,14.45
2022-09-17T17:08:53.133Z,14.40
2022-09-17T17:11:22.537Z,14.35
2022-09-17T17:13:51.481Z,14.31
2022-09-17T17:16:21.386Z,14.23
2022-09-17T17:18:53.312Z,14.15
2022-09-17T17:21:22.704Z,14.14
2022-09-17T17:23:51.102Z,14.12
2022-09-17T17:26:19.654Z,14.11
2022-09-17T17:28:50.059Z,14.13
2022-09-17T17:31:18.650Z,14.11
2022-09-17T17:33:50.092Z,14.08
2022-09-17T17:36:19.555Z,14.07
2022-09-17T17:38:49.331Z,14.03
2022-09-17T17:41:18.410Z,14.04
2022-09-17T17:43:46.645Z,14.02
2022-09-17T17:46:16.964Z,14.01
2022-09-17T17:48:46.238Z,14.03
2022-09-17T17:51:15.997Z,14.03
2022-09-17T17:53:45.832Z,14.05
2022-09-17T17:56:14.175Z,14.09
2022-09-17T17:58:43.390Z,14.09
2022-09-17T18:01:25.458Z,14.04
2022-09-17T18:03:59.344Z,14.01
2022-09-17T18:06:28.241Z,13.98
2022-09-17T18:08:59.075Z,14.00
2022-09-17T18:11:28.212Z,14.01
2022-09-17T18:13:58.673Z,13.98
2022-09-17T18:16:30.758Z,13.92
2022-09-17T18:18:59.171Z,13.88
2022-09-17T18:21:29.034Z,13.87
2022-09-17T18:23:58.323Z,13.83
2022-09-17T18:26:27.903Z,13.76
2022-09-17T18:28:57.642Z,13.72
2022-09-17T18:31:28.952Z,13.68
2022-09-17T18:34:00.847Z,13.68
2022-09-17T18:36:32.984Z,13.69
2022-09-17T18:41:54.468Z,13.74
2022-09-17T18:44:22.637Z,13.71
2022-09-17T18:46:51.721Z,13.68
2022-09-17T18:49:20.700Z,13.62
2022-09-17T18:51:49.949Z,13.51
2022-09-17T18:54:18.366Z,13.36
2022-09-17T18:56:48.526Z,13.23
2022-09-17T18:59:19.814Z,13.15
2022-09-17T19:01:49.579Z,13.14
2022-09-17T19:04:18.434Z,13.13
2022-09-17T19:06:46.723Z,13.09
2022-09-17T19:09:15.937Z,13.04
2022-09-17T19:11:44.819Z,12.95
2022-09-17T19:14:15.721Z,12.94
2022-09-17T19:16:44.465Z,12.91
2022-09-17T19:19:13.174Z,12.82
2022-09-17T19:21:41.871Z,12.73
2022-09-17T19:24:11.038Z,12.66
2022-09-17T19:26:39.675Z,12.59
2022-09-17T19:29:11.785Z,12.54
2022-09-17T19:31:41.547Z,12.55
2022-09-17T19:34:10.130Z,12.56
2022-09-17T19:36:39.865Z,12.58
2022-09-17T19:39:08.563Z,12.56
2022-09-17T19:41:36.755Z,12.50
2022-09-17T19:44:10.797Z,12.48
2022-09-17T19:46:39.392Z,12.43
2022-09-17T19:49:09.376Z,12.42
2022-09-17T19:51:38.559Z,12.40
2022-09-17T19:54:09.698Z,12.42
2022-09-17T19:56:39.323Z,12.47
2022-09-17T19:59:10.182Z,12.51
2022-09-17T20:01:40.781Z,12.54
2022-09-17T20:04:10.633Z,12.54
2022-09-17T20:06:38.903Z,12.53
2022-09-17T20:09:07.283Z,12.51
2022-09-17T20:11:35.461Z,12.53
2022-09-17T20:14:06.837Z,12.59
2022-09-17T20:16:37.622Z,12.65
2022-09-17T20:19:08.131Z,12.65
2022-09-17T20:21:36.376Z,12.63
2022-09-17T20:24:07.240Z,12.66
2022-09-17T20:26:35.688Z,12.67
2022-09-17T20:29:05.295Z,12.69
2022-09-17T20:31:34.370Z,12.69
2022-09-17T20:34:04.029Z,12.67
2022-09-17T20:36:35.443Z,12.67
2022-09-17T20:39:13.287Z,12.64
2022-09-17T20:41:45.318Z,12.65
2022-09-17T20:44:14.514Z,12.66
2022-09-17T20:46:43.287Z,12.72
2022-09-17T20:49:12.783Z,12.79
2022-09-17T20:51:42.886Z,12.89
2022-09-17T20:54:11.970Z,12.92
2022-09-17T20:56:41.123Z,12.92
2022-09-17T20:59:18.947Z,12.90
2022-09-17T21:01:49.750Z,12.88
2022-09-17T21:04:20.529Z,12.88
2022-09-17T21:06:54.503Z,12.88
2022-09-17T21:09:23.939Z,12.88
2022-09-17T21:11:52.043Z,12.83
2022-09-17T21:14:21.429Z,12.75
2022-09-17T21:16:52.052Z,12.70
2022-09-17T21:19:24.489Z,12.67
2022-09-17T21:21:54.750Z,12.64
2022-09-17T21:24:24.007Z,12.61
2022-09-17T21:26:54.320Z,12.59
2022-09-17T21:29:24.353Z,12.57
2022-09-17T21:31:53.265Z,12.55
2022-09-17T21:34:21.898Z,12.55
2022-09-17T21:36:51.771Z,12.54
2022-09-17T21:39:19.852Z,12.52
2022-09-17T21:41:48.713Z,12.47
2022-09-17T21:44:17.372Z,12.45
2022-09-17T21:46:45.851Z,12.50
2022-09-17T21:49:16.594Z,12.54
2022-09-17T21:51:44.869Z,12.58
2022-09-17T21:54:17.479Z,12.61
2022-09-17T21:56:46.806Z,12.65
2022-09-17T21:59:17.718Z,12.70
2022-09-17T22:01:50.173Z,12.70
2022-09-17T22:04:21.368Z,12.71
2022-09-17T22:06:50.596Z,12.75
2022-09-17T22:09:25.464Z,12.79
2022-09-17T22:11:53.961Z,12.83
2022-09-17T22:14:25.064Z,12.85
2022-09-17T22:16:57.455Z,12.81
2022-09-17T22:19:27.042Z,12.77
2022-09-17T22:21:56.585Z,12.78
2022-09-17T22:24:26.857Z,12.79
2022-09-17T22:26:58.228Z,12.74
2022-09-17T22:29:31.789Z,12.70
2022-09-17T22:32:02.667Z,12.68
2022-09-17T22:34:31.368Z,12.68
2022-09-17T22:37:01.032Z,12.71
2022-09-17T22:39:33.397Z,12.74
2022-09-17T22:42:01.716Z,12.76
2022-09-17T22:44:30.388Z,12.76
2022-09-17T22:47:01.187Z,12.77
2022-09-17T22:49:37.893Z,12.78
2022-09-17T22:52:06.713Z,12.78
2022-09-17T22:54:36.159Z,12.80
2022-09-17T22:57:06.018Z,12.76
2022-09-17T22:59:34.861Z,12.79
2022-09-17T23:02:04.086Z,12.83
2022-09-17T23:04:33.231Z,12.86
2022-09-17T23:07:03.975Z,12.88
2022-09-17T23:09:32.976Z,12.88
2022-09-17T23:12:01.366Z,12.87
2022-09-17T23:14:29.537Z,12.91
2022-09-17T23:16:57.876Z,12.88
2022-09-17T23:19:27.488Z,12.82
2022-09-17T23:21:59.395Z,12.77
2022-09-17T23:24:28.568Z,12.75
2022-09-17T23:26:56.959Z,12.72
2022-09-17T23:29:25.774Z,12.71
2022-09-17T23:31:53.932Z,12.65
2022-09-17T23:34:22.239Z,12.58
2022-09-17T23:36:51.855Z,12.54
2022-09-17T23:39:20.232Z,12.52
2022-09-17T23:41:48.463Z,12.49
2022-09-17T23:44:17.192Z,12.45
2022-09-17T23:46:47.339Z,12.38
2022-09-17T23:49:18.828Z,12.30
2022-09-17T23:51:48.188Z,12.24
2022-09-17T23:54:17.586Z,12.23
2022-09-17T23:56:46.836Z,12.16
2022-09-17T23:59:15.212Z,12.07
